TimeEDT,TemperatureF,Dew PointF,Humidity,Sea Level PressureIn,VisibilityMPH,Wind Direction,Wind SpeedMPH,Gust SpeedMPH,PrecipitationIn,Events,Conditions,WindDirDegrees,DateUTC
12:51 AM,59.0,57.0,93,30.06,3.0,SE,3.5,-,N/A,,Overcast,130,2012-10-24 04:51:00
1:51 AM,57.9,55.9,93,30.06,5.0,ESE,4.6,-,N/A,Fog,Overcast,110,2012-10-24 05:51:00
2:51 AM,59.0,57.0,93,30.06,6.0,SSE,5.8,-,N/A,,Overcast,150,2012-10-24 06:51:00
3:51 AM,60.1,55.0,83,30.06,10.0,SSW,4.6,-,N/A,,Overcast,200,2012-10-24 07:51:00
4:51 AM,57.9,53.1,84,30.07,10.0,WSW,6.9,-,N/A,,Overcast,240,2012-10-24 08:51:00
5:51 AM,55.9,52.0,87,30.09,10.0,WSW,5.8,-,N/A,,Mostly Cloudy,250,2012-10-24 09:51:00
6:51 AM,57.0,51.1,81,30.10,10.0,SSW,4.6,-,N/A,,Mostly Cloudy,210,2012-10-24 10:51:00
7:51 AM,59.0,52.0,78,30.10,10.0,SSW,4.6,-,N/A,,Overcast,200,2012-10-24 11:51:00
8:51 AM,60.8,53.6,77,30.12,10.0,South,3.5,-,N/A,,Overcast,190,2012-10-24 12:51:00
9:51 AM,62.1,54.0,75,30.12,10.0,South,6.9,-,N/A,,Overcast,180,2012-10-24 13:51:00
10:51 AM,63.0,54.0,72,30.12,10.0,South,8.1,-,N/A,,Overcast,190,2012-10-24 14:51:00
11:51 AM,63.0,55.9,78,30.10,10.0,South,8.1,-,0.01,,Mostly Cloudy,180,2012-10-24 15:51:00
12:51 PM,70.0,55.0,59,30.08,10.0,SW,10.4,-,N/A,,Scattered Clouds,220,2012-10-24 16:51:00
1:51 PM,71.6,55.4,57,30.07,10.0,SSW,9.2,-,N/A,,Mostly Cloudy,210,2012-10-24 17:51:00
2:51 PM,75.0,55.0,50,30.05,10.0,South,4.6,-,N/A,,Mostly Cloudy,190,2012-10-24 18:51:00
3:51 PM,75.9,54.0,46,30.04,10.0,SSW,9.2,-,N/A,,Partly Cloudy,210,2012-10-24 19:51:00
4:51 PM,75.9,53.1,45,30.03,10.0,SW,11.5,16.1,N/A,,Partly Cloudy,220,2012-10-24 20:51:00
5:51 PM,73.9,53.1,48,30.04,10.0,SSW,5.8,-,N/A,,Partly Cloudy,210,2012-10-24 21:51:00
6:51 PM,69.1,52.0,54,30.06,10.0,SW,3.5,-,N/A,,Partly Cloudy,220,2012-10-24 22:51:00
7:51 PM,63.0,52.0,67,30.07,10.0,South,3.5,-,N/A,,Partly Cloudy,170,2012-10-24 23:51:00
8:51 PM,68.0,52.0,56,30.07,10.0,South,3.5,-,N/A,,Partly Cloudy,190,2012-10-25 00:51:00
9:51 PM,64.0,51.1,63,30.09,10.0,SSE,3.5,-,N/A,,Partly Cloudy,160,2012-10-25 01:51:00
10:51 PM,60.1,53.1,78,30.09,10.0,SSE,4.6,-,N/A,,Mostly Cloudy,150,2012-10-25 02:51:00
11:51 PM,66.0,51.1,59,30.09,10.0,SSE,6.9,-,N/A,,Mostly Cloudy,160,2012-10-25 03:51:00